Aeroporto :
LOGIN :

Iscrizione | Disclaimer

   EN    FR    IT 

 










Sommario :    VFR   VFR Marginale   IFR   IFR Intensivo   IFR Molto Intensivo
Visibilità : 
Base nubi : 
>= 8 km
>= 3000ft
5 / 8 km
1000 / 3000 ft
1500m / 5 km
500 / 1000 ft
800 / 1500m
200 / 500 ft
< 800m
< 200 ft
Simboli :   Temporali  Nebbia  Neve Forte  Precipitazioni Forti  Vento > 20 kt
SIGMETs :   Varie  Temporali  Ghiacco  Turbolenza  Onda orograficha  Ceneri Vulcaniche







- Altitudine del aeroporto : 126 ft
- Codice IATA : WIC
- Carte del aeroporto


EGPC - Wick

ULTIMO METAR :
  • 191350Z 16013KT CAVOK 12/08 Q1029

METARs OBSOLETI :
  • 191320Z 16010KT CAVOK 12/08 Q1029
  • 191250Z 16011KT CAVOK 11/08 Q1029
  • 191220Z 17010KT CAVOK 11/08 Q1029
  • 191150Z 16009KT CAVOK 11/08 Q1030
  • 191120Z 16011KT CAVOK 11/08 Q1030

TAF TAF EGPC
Valido dal 19 a 12 ore il 19 a 21 ore UTC


191054Z 1912/1921 16012KT CAVOK
TEMPO 1912/1918 17015G25KT
ATIS : +44 1955 607 596
Nessun NOTAM noto per questo aeroporto.



MetMap, La meteo Aeronautica in un colpo d'occhio ! - Copyright ORBIFLY Dicembre 2007 - Disclaimer

ORBIFLY MET'MAP TEAM :

Programmazione e sviluppo : Alexandra Zaïnal
Concezione e sviluppo : Baudouin d'Aumeries
Co-Programmazione e sviluppo : Marc-Olivier Méhu
Supporto tecnico e logistico : Manuel Goepfert
Aiuto per la traduzione : Arnaldo La Scala

Contatto : metmap@orbifly.com




FONTI E CREDITI :

   NOAA